^^
Grace C. Lehan Memorial Weather Station Historical Data
Daily Summary for June 14, 2021 Units:  English    Metric   Both
Daily Weekly Monthly Yearly
  High: Low: Average:
Temperature: 89.6 °F 69.5 °F 76.7 °F
Dew Point: 78 °F 68.6 °F 72.3 °F
Humidity: 97% 64.7% 87%
Wind Speed: 3.2mph 0mph 0.2mph
Wind Gust: 12mph - -
Wind- - SW
Pressure: 30.19 in 30.03 in -
Precipitation: 0.42 in    
 
 
Tabular Data for June 14, 2021
Time Temperature Dew Point Pressure Wind Wind Speed Wind Gust Humidity Rainfall Rate (Hourly) solar
00:00 70.3 °F 69.1 °F 30.19 in Calm     96% 0.03 in 0 W/m2
00:09 70.3 °F 69.2 °F 30.19 in Calm     96% 0.03 in 0 W/m2
00:14 70.4 °F 69.2 °F 30.19 in Calm     96% 0.03 in 0 W/m2
00:19 70.3 °F 69.1 °F 30.19 in Calm     96% 0.03 in 0 W/m2
00:24 70.4 °F 69.2 °F 30.18 in Calm     96% 0.03 in 0 W/m2
00:29 70.4 °F 69.2 °F 30.18 in Calm     96% 0.03 in 0 W/m2
00:34 70.4 °F 69.2 °F 30.18 in Calm     96% 0.03 in 0 W/m2
00:39 70.3 °F 69.2 °F 30.17 in Calm     96% 0.01 in 0 W/m2
00:44 70.3 °F 69.1 °F 30.18 in Calm     96% 0.01 in 0 W/m2
00:49 70.3 °F 69.1 °F 30.17 in Calm     96% 0.01 in 0 W/m2
00:54 70.2 °F 69 °F 30.17 in Calm     96% 0.01 in 0 W/m2
00:59 70.2 °F 69 °F 30.17 in Calm     96% 0.01 in 0 W/m2
01:04 70.1 °F 68.9 °F 30.17 in Calm     96% 0.01 in 0 W/m2
01:09 70.1 °F 68.9 °F 30.17 in Calm     96% 0.01 in 0 W/m2
01:14 70 °F 68.8 °F 30.17 in Calm     96% 0.01 in 0 W/m2
01:19 70 °F 68.8 °F 30.17 in Calm     96% 0.01 in 0 W/m2
01:24 69.9 °F 68.7 °F 30.16 in Calm     96% 0.01 in 0 W/m2
01:29 69.9 °F 68.7 °F 30.17 in Calm     96% 0.01 in 0 W/m2
01:34 69.9 °F 68.7 °F 30.17 in Calm     96% 0.01 in 0 W/m2
01:39 70 °F 68.8 °F 30.17 in Calm     96% 0.01 in 0 W/m2
01:44 70 °F 69 °F 30.18 in Calm     96.7% 0.01 in 0 W/m2
01:49 70 °F 68.8 °F 30.18 in Calm     96% 0.01 in 0 W/m2
01:54 70 °F 68.8 °F 30.18 in Calm     96.1% 0.01 in 0 W/m2
01:59 70 °F 69 °F 30.18 in Calm     96.6% 0.01 in 0 W/m2
02:04 70 °F 69.1 °F 30.18 in Calm     97% 0.01 in 0 W/m2
02:09 69.9 °F 69 °F 30.18 in Calm     97% 0.01 in 0 W/m2
02:14 69.9 °F 69 °F 30.18 in Calm     97% 0.01 in 0 W/m2
02:19 69.9 °F 69 °F 30.18 in Calm     97% 0.01 in 0 W/m2
02:24 69.9 °F 69 °F 30.17 in Calm     97% 0.01 in 0 W/m2
02:29 69.9 °F 69 °F 30.17 in Calm     97% 0.01 in 0 W/m2
02:34 69.9 °F 69 °F 30.16 in Calm     97% 0.01 in 0 W/m2
02:39 69.9 °F 69 °F 30.17 in Calm     97% 0.00 in 0 W/m2
02:44 69.8 °F 68.9 °F 30.17 in Calm     97% 0.00 in 0 W/m2
02:49 69.8 °F 68.9 °F 30.16 in Calm     97% 0.00 in 0 W/m2
02:54 69.8 °F 68.9 °F 30.17 in Calm     97% 0.00 in 0 W/m2
02:59 69.8 °F 68.9 °F 30.17 in Calm     97% 0.00 in 0 W/m2
03:04 69.8 °F 68.9 °F 30.16 in Calm     97% 0.00 in 0 W/m2
03:09 69.7 °F 68.9 °F 30.16 in Calm     97% 0.01 in 0 W/m2
03:14 69.7 °F 68.8 °F 30.16 in Calm     97% 0.01 in 0 W/m2
03:19 69.7 °F 68.8 °F 30.16 in Calm     97% 0.01 in 0 W/m2
03:24 69.7 °F 68.8 °F 30.16 in Calm     97% 0.01 in 0 W/m2
03:29 69.6 °F 68.7 °F 30.15 in Calm     97% 0.01 in 0 W/m2
03:34 69.6 °F 68.7 °F 30.15 in Calm     97% 0.01 in 0 W/m2
03:39 69.6 °F 68.7 °F 30.14 in Calm     97% 0.01 in 0 W/m2
03:44 69.6 °F 68.7 °F 30.14 in Calm     97% 0.01 in 0 W/m2
03:49 69.5 °F 68.6 °F 30.14 in Calm     97% 0.01 in 0 W/m2
03:54 69.5 °F 68.6 °F 30.14 in Calm     97% 0.01 in 0 W/m2
03:59 69.5 °F 68.6 °F 30.14 in Calm     97% 0.01 in 0 W/m2
04:00 69.5 °F 68.6 °F 30.14 in Calm     97% 0.01 in 0 W/m2
04:09 69.5 °F 68.6 °F 30.14 in Calm     97% 0.01 in 0 W/m2
04:14 69.5 °F 68.6 °F 30.15 in Calm     97% 0.01 in 0 W/m2
04:19 69.5 °F 68.6 °F 30.15 in Calm     97% 0.01 in 0 W/m2
04:24 69.5 °F 68.6 °F 30.15 in Calm     97% 0.01 in 0 W/m2
04:29 69.5 °F 68.6 °F 30.15 in Calm     97% 0.02 in 0 W/m2
04:34 69.5 °F 68.6 °F 30.15 in Calm     97% 0.02 in 0 W/m2
04:39 69.5 °F 68.6 °F 30.16 in Calm     97% 0.01 in 0 W/m2
04:44 69.5 °F 68.6 °F 30.17 in Calm     97% 0.01 in 0 W/m2
04:49 69.5 °F 68.6 °F 30.17 in East 0.1 mph 2 mph 97% 0.07 in 0 W/m2
04:54 69.6 °F 68.7 °F 30.17 in East 0.1 mph 2 mph 97% 0.17 in 0 W/m2
04:59 69.6 °F 68.7 °F 30.17 in Calm   2 mph 97% 0.19 in 0 W/m2
05:04 69.6 °F 68.7 °F 30.17 in Calm   2 mph 97% 0.19 in 0 W/m2
05:09 69.5 °F 68.6 °F 30.17 in Calm     97% 0.19 in 0 W/m2
05:14 69.5 °F 68.6 °F 30.17 in Calm     97% 0.19 in 0 W/m2
05:19 69.6 °F 68.7 °F 30.17 in Calm     97% 0.19 in 0 W/m2
05:24 69.5 °F 68.6 °F 30.17 in Calm     97% 0.19 in 0 W/m2
05:29 69.5 °F 68.7 °F 30.17 in Calm     97% 0.19 in 0 W/m2
05:34 69.6 °F 68.7 °F 30.16 in Calm     97% 0.19 in 0 W/m2
05:39 69.6 °F 68.7 °F 30.16 in Calm     97% 0.18 in 0 W/m2
05:44 69.5 °F 68.7 °F 30.16 in Calm     97% 0.18 in 0 W/m2
05:49 69.5 °F 68.6 °F 30.15 in Calm     97% 0.18 in 0 W/m2
05:54 69.5 °F 68.6 °F 30.15 in Calm     97% 0.18 in 0 W/m2
05:59 69.5 °F 68.6 °F 30.15 in Calm     97% 0.18 in 0 W/m2
06:04 69.6 °F 68.7 °F 30.15 in Calm     97% 0.18 in 0 W/m2
06:09 69.6 °F 68.7 °F 30.14 in Calm     97% 0.00 in 5 W/m2
06:14 69.6 °F 68.7 °F 30.14 in Calm     97% 0.00 in 11 W/m2
06:19 69.6 °F 68.7 °F 30.14 in Calm     97% 0.00 in 16 W/m2
06:24 69.7 °F 68.8 °F 30.14 in Calm     97% 0.00 in 18 W/m2
06:29 69.7 °F 68.8 °F 30.14 in Calm     97% 0.00 in 18 W/m2
06:34 69.7 °F 68.8 °F 30.13 in Calm     97% 0.00 in 19 W/m2
06:39 69.7 °F 68.8 °F 30.13 in Calm     97% 0.00 in 19 W/m2
06:44 69.8 °F 68.9 °F 30.13 in Calm     97% 0.00 in 16 W/m2
06:49 69.8 °F 68.9 °F 30.13 in Calm     97% 0.00 in 16 W/m2
06:54 69.8 °F 68.9 °F 30.13 in Calm     97% 0.00 in 21 W/m2
06:59 69.8 °F 68.9 °F 30.13 in Calm     97% 0.00 in 18 W/m2
07:04 69.9 °F 69 °F 30.14 in Calm     97% 0.00 in 46 W/m2
07:09 70.1 °F 69.2 °F 30.14 in Calm     97% 0.00 in 39 W/m2
07:14 70.2 °F 69.3 °F 30.14 in Calm     97% 0.00 in 39 W/m2
07:19 70.2 °F 69.3 °F 30.14 in Calm     97% 0.00 in 23 W/m2
07:24 70.2 °F 69.3 °F 30.14 in Calm     97% 0.00 in 44 W/m2
07:29 70.2 °F 69.3 °F 30.14 in Calm   2 mph 97% 0.00 in 49 W/m2
07:34 70.2 °F 69.3 °F 30.14 in Calm   2 mph 97% 0.00 in 65 W/m2
07:39 70.3 °F 69.4 °F 30.14 in Calm     97% 0.00 in 46 W/m2
07:44 70.3 °F 69.4 °F 30.14 in Calm     97% 0.00 in 51 W/m2
07:49 70.4 °F 69.5 °F 30.15 in Calm     97% 0.00 in 51 W/m2
07:54 70.5 °F 69.6 °F 30.15 in Calm     97% 0.00 in 58 W/m2
07:59 70.6 °F 69.7 °F 30.15 in Calm     97% 0.00 in 83 W/m2
08:09 70.7 °F 69.8 °F 30.15 in Calm     97% 0.00 in 83 W/m2
08:14 70.6 °F 69.7 °F 30.15 in Calm     97% 0.00 in 83 W/m2
08:19 70.7 °F 69.8 °F 30.15 in Calm     97% 0.00 in 81 W/m2
08:24 70.7 °F 69.8 °F 30.15 in Calm     97% 0.00 in 84 W/m2
08:29 70.8 °F 69.9 °F 30.15 in Calm     97% 0.00 in 76 W/m2
08:34 70.8 °F 69.9 °F 30.15 in Calm     97% 0.00 in 62 W/m2
08:39 70.9 °F 70 °F 30.15 in Calm     97% 0.00 in 49 W/m2
08:44 70.9 °F 70 °F 30.15 in Calm     97% 0.00 in 49 W/m2
08:49 71 °F 70.1 °F 30.15 in Calm     97% 0.00 in 40 W/m2
08:54 71 °F 70.1 °F 30.15 in Calm     97% 0.00 in 46 W/m2
08:59 70.9 °F 70 °F 30.14 in Calm     97% 0.00 in 158 W/m2
09:04 71 °F 70.1 °F 30.14 in Calm     97% 0.00 in 151 W/m2
09:09 71.1 °F 70.2 °F 30.14 in Calm     97% 0.00 in 158 W/m2
09:14 71.3 °F 70.4 °F 30.14 in Calm     97% 0.00 in 69 W/m2
09:19 71.4 °F 70.5 °F 30.14 in Calm     97% 0.00 in 135 W/m2
09:24 71.5 °F 70.6 °F 30.14 in Calm     97% 0.00 in 171 W/m2
09:29 71.5 °F 70.6 °F 30.13 in Calm     97% 0.00 in 162 W/m2
09:34 71.6 °F 70.7 °F 30.13 in Calm     97% 0.00 in 141 W/m2
09:39 71.6 °F 70.7 °F 30.13 in Calm   1 mph 97% 0.00 in 163 W/m2
09:44 71.7 °F 70.8 °F 30.13 in Calm   1 mph 97% 0.00 in 160 W/m2
09:49 71.8 °F 70.9 °F 30.13 in Calm   1 mph 97% 0.00 in 160 W/m2
09:54 71.9 °F 71 °F 30.13 in Calm   1 mph 97% 0.00 in 178 W/m2
09:59 72 °F 71.1 °F 30.13 in Calm   1 mph 97% 0.00 in 178 W/m2
10:04 72.1 °F 71.2 °F 30.13 in Calm   1 mph 97% 0.00 in 153 W/m2
10:09 72.2 °F 71.3 °F 30.13 in Calm     97% 0.00 in 151 W/m2
10:14 72.2 °F 71.3 °F 30.13 in Calm     97% 0.00 in 163 W/m2
10:19 72.4 °F 71.5 °F 30.13 in Calm     97% 0.00 in 155 W/m2
10:24 72.6 °F 71.7 °F 30.13 in Calm     97% 0.00 in 135 W/m2
10:29 72.8 °F 71.9 °F 30.13 in Calm     97% 0.00 in 156 W/m2
10:34 73 °F 72.1 °F 30.12 in Calm     97% 0.00 in 153 W/m2
10:39 73.1 °F 72.2 °F 30.12 in Calm     97% 0.00 in 137 W/m2
10:44 73.1 °F 72.2 °F 30.12 in Calm     97% 0.00 in 176 W/m2
10:49 73.3 °F 72.4 °F 30.12 in Calm     97% 0.00 in 218 W/m2
10:54 73.4 °F 72.5 °F 30.12 in Calm     97% 0.00 in 250 W/m2
10:59 73.5 °F 72.6 °F 30.12 in Calm     97% 0.00 in 243 W/m2
11:04 73.8 °F 72.9 °F 30.12 in Calm     97% 0.00 in 243 W/m2
11:09 74 °F 73.1 °F 30.12 in Calm     97% 0.00 in 243 W/m2
11:14 74.2 °F 73.3 °F 30.12 in Calm     97% 0.00 in 239 W/m2
11:19 74.3 °F 73.4 °F 30.12 in Calm     97% 0.00 in 294 W/m2
11:24 74.7 °F 73.8 °F 30.12 in Calm   1 mph 97% 0.00 in 353 W/m2
11:29 74.9 °F 73.8 °F 30.12 in Calm   1 mph 96.2% 0.00 in 512 W/m2
11:34 75.4 °F 74.2 °F 30.12 in Calm   1 mph 96% 0.00 in 475 W/m2
11:39 75.9 °F 74.7 °F 30.12 in Calm   1 mph 96% 0.00 in 475 W/m2
11:44 76.6 °F 75.3 °F 30.12 in ESE 0.1 mph 3 mph 95.8% 0.00 in 436 W/m2
11:49 77 °F 75.3 °F 30.12 in Calm   3 mph 94.5% 0.00 in 461 W/m2
11:54 77.5 °F 75.5 °F 30.12 in Calm   3 mph 93.3% 0.00 in 958 W/m2
11:59 78.3 °F 76.1 °F 30.11 in SE 0.2 mph 4 mph 93% 0.00 in 949 W/m2
12:00 78.7 °F 76.2 °F 30.11 in Calm   4 mph 92% 0.00 in 949 W/m2
12:09 79.4 °F 75.7 °F 30.11 in Calm     88.5% 0.00 in 330 W/m2
12:14 79.6 °F 75.2 °F 30.11 in Calm     86.3% 0.00 in 1092 W/m2
12:19 80.1 °F 76.3 °F 30.11 in Calm     88.2% 0.00 in 1092 W/m2
12:24 80.9 °F 76.7 °F 30.10 in Calm   1 mph 86.9% 0.00 in 1058 W/m2
12:29 81.5 °F 76.4 °F 30.10 in SSE 0.4 mph 4 mph 84.6% 0.00 in 1058 W/m2
12:34 81.9 °F 76.5 °F 30.10 in Calm   4 mph 83.7% 0.00 in 397 W/m2
12:39 82.1 °F 76.3 °F 30.10 in Calm   2 mph 82.7% 0.00 in 499 W/m2
12:44 82.2 °F 75.7 °F 30.10 in SW 0.5 mph 7 mph 80.9% 0.00 in 519 W/m2
12:49 82.3 °F 75.9 °F 30.10 in WSW 0.1 mph 7 mph 81% 0.00 in 408 W/m2
12:54 82.2 °F 76.1 °F 30.10 in Calm   7 mph 81.7% 0.00 in 332 W/m2
12:59 82.1 °F 75.9 °F 30.10 in Calm   7 mph 81.5% 0.00 in 362 W/m2
13:04 82.1 °F 76 °F 30.09 in WSW 0.1 mph 7 mph 82% 0.00 in 320 W/m2
13:09 82 °F 76 °F 30.09 in Calm   3 mph 82% 0.00 in 380 W/m2
13:14 82 °F 76.3 °F 30.09 in Calm   3 mph 82.9% 0.00 in 360 W/m2
13:19 82.3 °F 76.8 °F 30.09 in Calm   3 mph 83.5% 0.00 in 362 W/m2
13:24 82.5 °F 76.7 °F 30.09 in WSW 0.3 mph 5 mph 82.8% 0.00 in 789 W/m2
13:29 82.7 °F 76.6 °F 30.09 in WSW 1 mph 5 mph 81.9% 0.00 in 1083 W/m2
13:34 82.9 °F 76.4 °F 30.08 in WSW 0.3 mph 5 mph 80.7% 0.00 in 1083 W/m2
13:39 83.3 °F 77.1 °F 30.08 in Calm   4 mph 81.8% 0.00 in 1018 W/m2
13:44 83.5 °F 76.8 °F 30.08 in Calm   4 mph 80.3% 0.00 in 967 W/m2
13:49 83.6 °F 76.5 °F 30.08 in SW 0.1 mph 4 mph 79.3% 0.00 in 1021 W/m2
13:54 83.8 °F 76.8 °F 30.07 in WSW 1 mph 6 mph 79.4% 0.00 in 998 W/m2
13:59 84.1 °F 76.5 °F 30.07 in Calm   6 mph 78% 0.00 in 306 W/m2
14:04 84.2 °F 76.5 °F 30.07 in SSE 0.1 mph 6 mph 77.7% 0.00 in 969 W/m2
14:09 84.4 °F 76.7 °F 30.07 in Calm   2 mph 77.8% 0.00 in 789 W/m2
14:14 84.7 °F 77.2 °F 30.07 in SW 0.8 mph 6 mph 78.1% 0.00 in 918 W/m2
14:19 85.2 °F 77.2 °F 30.06 in WSW 0.3 mph 6 mph 76.9% 0.00 in 853 W/m2
14:24 85.7 °F 77.2 °F 30.06 in Calm   6 mph 75.8% 0.00 in 940 W/m2
14:29 86.2 °F 78 °F 30.06 in WSW 0.4 mph 6 mph 76.6% 0.00 in 930 W/m2
14:34 86.5 °F 77.1 °F 30.06 in WSW 0.7 mph 6 mph 73.8% 0.00 in 925 W/m2
14:39 86.6 °F 77.3 °F 30.06 in WSW 1.1 mph 4 mph 73.9% 0.00 in 905 W/m2
14:44 86.7 °F 76.9 °F 30.06 in WSW 0.7 mph 5 mph 72.8% 0.00 in 884 W/m2
14:49 86.8 °F 77.4 °F 30.05 in West 0.5 mph 5 mph 73.7% 0.00 in 914 W/m2
14:54 86.7 °F 76.8 °F 30.05 in West 0.4 mph 5 mph 72.3% 0.00 in 914 W/m2
14:59 86.7 °F 76.9 °F 30.06 in WSW 0.5 mph 5 mph 72.7% 0.00 in 889 W/m2
15:04 86.7 °F 77 °F 30.05 in WSW 0.4 mph 5 mph 73.1% 0.00 in 902 W/m2
15:09 86.9 °F 77.6 °F 30.05 in WSW 0.1 mph 4 mph 74% 0.00 in 902 W/m2
15:14 87.2 °F 77.2 °F 30.05 in WSW 1.5 mph 4 mph 72.4% 0.00 in 886 W/m2
15:19 87.3 °F 76.8 °F 30.05 in WSW 0.9 mph 4 mph 71.2% 0.00 in 886 W/m2
15:24 87.6 °F 77 °F 30.04 in Calm   4 mph 71% 0.00 in 886 W/m2
15:29 87.9 °F 77.7 °F 30.04 in WSW 0.8 mph 8 mph 71.8% 0.00 in 860 W/m2
15:34 88.2 °F 77.3 °F 30.04 in SW 1.4 mph 8 mph 70.3% 0.00 in 853 W/m2
15:39 88.3 °F 77 °F 30.04 in SW 0.1 mph 7 mph 69.2% 0.00 in 853 W/m2
15:44 88.5 °F 77.3 °F 30.04 in WSW 1.5 mph 7 mph 69.4% 0.00 in 835 W/m2
15:49 88.9 °F 77.2 °F 30.04 in WSW 0.6 mph 7 mph 68.6% 0.00 in 870 W/m2
15:54 89.1 °F 77.2 °F 30.04 in WSW 0.4 mph 7 mph 68% 0.00 in 780 W/m2
15:59 89.3 °F 76.6 °F 30.04 in West 1 mph 7 mph 66.1% 0.00 in 745 W/m2
16:00 89.4 °F 76.6 °F 30.04 in Calm   7 mph 66% 0.00 in 737 W/m2
16:09 89.6 °F 76.4 °F 30.04 in West 1 mph 4 mph 65.2% 0.00 in 754 W/m2
16:14 89.6 °F 76.6 °F 30.04 in West 0.9 mph 4 mph 65.8% 0.00 in 742 W/m2
16:19 89.4 °F 76.5 °F 30.04 in WSW 1.7 mph 4 mph 65.8% 0.00 in 700 W/m2
16:24 89.1 °F 75.9 °F 30.04 in SW 1.3 mph 4 mph 65.2% 0.00 in 127 W/m2
16:29 88.9 °F 75.8 °F 30.04 in WSW 1.7 mph 7 mph 65.5% 0.00 in 178 W/m2
16:34 88.6 °F 75.8 °F 30.05 in SW 1 mph 7 mph 66% 0.00 in 171 W/m2
16:39 88.4 °F 75.9 °F 30.05 in SW 0.4 mph 6 mph 66.6% 0.00 in 121 W/m2
16:44 88.3 °F 75.9 °F 30.04 in SW 0.4 mph 6 mph 66.8% 0.00 in 100 W/m2
16:49 88.2 °F 75.8 °F 30.04 in SW 0.5 mph 6 mph 66.8% 0.00 in 127 W/m2
16:54 87.8 °F 75.5 °F 30.04 in SW 1.2 mph 6 mph 67% 0.00 in 125 W/m2
16:59 87.6 °F 75.3 °F 30.04 in SW 0.4 mph 6 mph 67% 0.00 in 107 W/m2
17:04 87.5 °F 76.1 °F 30.04 in Calm   6 mph 69.1% 0.00 in 113 W/m2
17:09 87.5 °F 76 °F 30.04 in Calm   1 mph 68.7% 0.00 in 114 W/m2
17:14 87.5 °F 75.8 °F 30.04 in West 1.1 mph 9 mph 68.2% 0.00 in 125 W/m2
17:19 87.7 °F 75.4 °F 30.04 in WSW 1.2 mph 9 mph 67.1% 0.00 in 139 W/m2
17:24 87.8 °F 75.4 °F 30.04 in West 0.9 mph 9 mph 66.9% 0.00 in 139 W/m2
17:29 88 °F 75.5 °F 30.04 in West 1.4 mph 9 mph 66.8% 0.00 in 132 W/m2
17:34 88 °F 75.1 °F 30.04 in WSW 0.5 mph 9 mph 65.7% 0.00 in 141 W/m2
17:39 88 °F 74.6 °F 30.04 in WSW 1.6 mph 5 mph 64.7% 0.00 in 135 W/m2
17:44 87.9 °F 74.7 °F 30.04 in WSW 1 mph 5 mph 65.3% 0.00 in 153 W/m2
17:49 87.8 °F 75.4 °F 30.04 in WSW 0.6 mph 5 mph 66.8% 0.00 in 107 W/m2
17:54 87.8 °F 74.8 °F 30.04 in SW 1.1 mph 5 mph 65.5% 0.00 in 104 W/m2
17:59 87.7 °F 74.7 °F 30.03 in WSW 0.3 mph 5 mph 65.5% 0.00 in 76 W/m2
18:04 87.7 °F 75 °F 30.03 in WSW 0.6 mph 5 mph 66.1% 0.00 in 65 W/m2
18:09 87.5 °F 75 °F 30.03 in WSW 0.8 mph 4 mph 66.5% 0.00 in 56 W/m2
18:14 87.4 °F 75.4 °F 30.04 in WSW 0.3 mph 4 mph 67.6% 0.00 in 49 W/m2
18:19 87.2 °F 76.5 °F 30.04 in WSW 0.3 mph 4 mph 70.7% 0.00 in 37 W/m2
18:24 86.8 °F 76.7 °F 30.04 in WSW 0.2 mph 4 mph 72.1% 0.00 in 47 W/m2
18:29 86.3 °F 76.6 °F 30.04 in WSW 0.2 mph 4 mph 72.9% 0.00 in 49 W/m2
18:34 85.8 °F 76.3 °F 30.04 in WSW 0.1 mph 4 mph 73.4% 0.00 in 54 W/m2
18:39 85.4 °F 76.2 °F 30.04 in SW 0.3 mph 3 mph 74% 0.00 in 53 W/m2
18:44 85.1 °F 76.4 °F 30.04 in SW 0.4 mph 3 mph 75.3% 0.00 in 47 W/m2
18:49 84.8 °F 76 °F 30.04 in SW 0.5 mph 3 mph 75% 0.00 in 40 W/m2
18:54 84.6 °F 76.1 °F 30.04 in SSW 0.2 mph 3 mph 75.6% 0.00 in 33 W/m2
18:59 84.4 °F 76 °F 30.04 in SSW 0.6 mph 4 mph 76% 0.00 in 30 W/m2
19:04 84.2 °F 75.8 °F 30.04 in SSW 0.3 mph 4 mph 76% 0.00 in 30 W/m2
19:09 84 °F 75.6 °F 30.04 in SSW 0.3 mph 3 mph 76% 0.00 in 30 W/m2
19:14 83.8 °F 75.2 °F 30.04 in SSW 0.5 mph 3 mph 75.5% 0.00 in 32 W/m2
19:19 83.7 °F 75.3 °F 30.04 in SSW 0.3 mph 3 mph 76% 0.00 in 30 W/m2
19:24 83.5 °F 75.2 °F 30.04 in Calm   3 mph 76% 0.00 in 25 W/m2
19:29 83.4 °F 75.1 °F 30.04 in Calm   3 mph 76% 0.00 in 23 W/m2
19:34 83.3 °F 75.1 °F 30.03 in Calm   3 mph 76.4% 0.00 in 19 W/m2
19:39 83.2 °F 75.3 °F 30.03 in SSW 0.1 mph 1 mph 77% 0.00 in 19 W/m2
19:44 83.1 °F 75.1 °F 30.03 in Calm   1 mph 77% 0.00 in 18 W/m2
19:49 82.9 °F 75 °F 30.03 in Calm   1 mph 77% 0.00 in 16 W/m2
19:54 82.7 °F 75.1 °F 30.04 in Calm   1 mph 77.8% 0.00 in 12 W/m2
19:59 82.5 °F 75 °F 30.04 in Calm   1 mph 78% 0.00 in 11 W/m2
20:00 82.4 °F 74.9 °F 30.04 in Calm   1 mph 78% 0.00 in 9 W/m2
20:09 82.1 °F 75 °F 30.04 in Calm     79% 0.00 in 5 W/m2
20:14 81.9 °F 74.8 °F 30.04 in Calm     79% 0.00 in 0 W/m2
20:19 81.8 °F 74.9 °F 30.04 in Calm     79.9% 0.00 in 0 W/m2
20:24 81.6 °F 74.8 °F 30.04 in Calm     80% 0.00 in 0 W/m2
20:29 81.4 °F 74.6 °F 30.04 in Calm     80% 0.00 in 0 W/m2
20:34 81.2 °F 74.7 °F 30.03 in Calm     80.6% 0.00 in 0 W/m2
20:39 81 °F 74.7 °F 30.03 in Calm     81% 0.00 in 0 W/m2
20:44 80.8 °F 74.5 °F 30.04 in Calm   1 mph 81% 0.00 in 0 W/m2
20:49 80.6 °F 74.3 °F 30.04 in Calm   1 mph 81% 0.00 in 0 W/m2
20:54 80.4 °F 74.1 °F 30.05 in Calm   1 mph 81% 0.00 in 0 W/m2
20:59 80.2 °F 73.9 °F 30.05 in Calm   1 mph 81% 0.00 in 0 W/m2
21:04 80.1 °F 73.8 °F 30.05 in Calm   1 mph 81.2% 0.00 in 0 W/m2
21:09 79.9 °F 73.6 °F 30.05 in Calm   1 mph 81.1% 0.00 in 0 W/m2
21:14 79.8 °F 73.8 °F 30.05 in Calm   1 mph 81.9% 0.00 in 0 W/m2
21:19 79.7 °F 73.7 °F 30.05 in Calm   1 mph 82% 0.00 in 0 W/m2
21:24 79.5 °F 73.6 °F 30.05 in Calm   1 mph 82% 0.00 in 0 W/m2
21:29 79.4 °F 73.5 °F 30.06 in SW 0.2 mph 3 mph 82.4% 0.00 in 0 W/m2
21:34 79.2 °F 73.5 °F 30.08 in NNW 3.2 mph 12 mph 82.8% 0.00 in 0 W/m2
21:39 78.8 °F 72.2 °F 30.08 in NW 1.2 mph 12 mph 80.3% 0.00 in 0 W/m2
21:44 78.5 °F 71.1 °F 30.08 in North 1.3 mph 12 mph 78.2% 0.00 in 0 W/m2
21:49 78.2 °F 70.4 °F 30.08 in NNE 1.4 mph 12 mph 77.1% 0.00 in 0 W/m2
21:54 77.7 °F 70.1 °F 30.09 in ENE 2.7 mph 12 mph 77.5% 0.01 in 0 W/m2
21:59 77.3 °F 70.6 °F 30.09 in North 0.3 mph 12 mph 80.1% 0.15 in 0 W/m2
22:04 76.6 °F 70.9 °F 30.08 in NE 0.1 mph 12 mph 82.7% 0.21 in 0 W/m2
22:09 76 °F 71 °F 30.08 in Calm   2 mph 84.4% 0.21 in 0 W/m2
22:14 75.4 °F 70.7 °F 30.08 in Calm   2 mph 85.3% 0.21 in 0 W/m2
22:19 74.9 °F 70.7 °F 30.08 in Calm   2 mph 86.6% 0.21 in 0 W/m2
22:24 74.4 °F 70.5 °F 30.08 in Calm   2 mph 87.6% 0.21 in 0 W/m2
22:29 74 °F 70.5 °F 30.08 in Calm   2 mph 88.9% 0.21 in 0 W/m2
22:34 73.6 °F 70.4 °F 30.08 in Calm   2 mph 89.9% 0.21 in 0 W/m2
22:39 73.3 °F 70.5 °F 30.07 in Calm     90.8% 0.21 in 0 W/m2
22:44 73.2 °F 70.4 °F 30.08 in Calm     91% 0.21 in 0 W/m2
22:49 73.1 °F 70.6 °F 30.08 in Calm     92% 0.21 in 0 W/m2
22:54 73 °F 70.5 °F 30.07 in Calm     92% 0.21 in 0 W/m2
22:59 72.9 °F 70.6 °F 30.07 in Calm     92.4% 0.21 in 0 W/m2
23:04 72.8 °F 70.7 °F 30.08 in Calm     93% 0.21 in 0 W/m2
23:09 72.7 °F 70.6 °F 30.08 in Calm     93% 0.06 in 0 W/m2
23:14 72.6 °F 70.5 °F 30.07 in Calm     93% 0.06 in 0 W/m2
23:19 72.6 °F 70.5 °F 30.07 in Calm     93% 0.06 in 0 W/m2
23:24 72.5 °F 70.4 °F 30.07 in Calm     93% 0.06 in 0 W/m2
23:29 72.4 °F 70.3 °F 30.07 in Calm     93% 0.06 in 0 W/m2
23:34 72.4 °F 70.5 °F 30.07 in Calm     93.7% 0.06 in 0 W/m2
23:39 72.3 °F 70.5 °F 30.07 in Calm     94% 0.00 in 0 W/m2
23:44 72.2 °F 70.4 °F 30.07 in Calm     94% 0.00 in 0 W/m2
23:49 72.2 °F 70.4 °F 30.07 in Calm     94% 0.00 in 0 W/m2
23:54 72.1 °F 70.3 °F 30.07 in Calm     94% 0.00 in 0 W/m2
23:59 72.1 °F 70.3 °F 30.07 in Calm     94% 0.00 in 0 W/m2
Hartford County Weather
Compliments of Weather Underground - 4 mb